Monday, February 19, 2018, 10:04 AM GMT
Back to Local

CYTZ, Toronto Island Airport Automated Reporting Station

Location: , , Canada Lat: 43.633
Local Time: 10:04 AM GMT (10:04 GMT) Lon: -79.4
Time Zone: GMT Elev: 252 ft

Show me the last for .
Show Decoded

2018-02-19 09:00 METAR CYTZ 190900Z AUTO 08004KT 9SM SCT220 SCT240 01/M02 A3014 RMK SLP212 =
2018-02-19 08:00 METAR CYTZ 190800Z AUTO 09006KT 9SM BKN240 01/M03 A3015 RMK SLP214 =
2018-02-19 07:00 METAR CYTZ 190700Z AUTO 07005KT 9SM OVC240 00/M02 A3018 RMK SLP224 =
2018-02-19 06:00 METAR CYTZ 190600Z AUTO 09005KT 9SM FEW220 BKN240 01/M03 A3021 RMK SLP235 =
2018-02-19 05:00 METAR CYTZ 190500Z AUTO 12003KT 040V180 9SM CLR 00/M03 A3024 RMK SLP244 =
2018-02-19 04:00 METAR CYTZ 190400Z AUTO 13007KT 9SM BKN210 00/M04 A3026 RMK SLP252 =
2018-02-19 03:00 METAR CYTZ 190300Z AUTO 14007KT 9SM SCT150 BKN190 BKN220 01/M03 A3029 RMK SLP263
                 =
2018-02-19 02:00 METAR CYTZ 190200Z AUTO 16004KT 9SM CLR 01/M03 A3031 RMK SLP269 =
2018-02-19 01:00 METAR CYTZ 190100Z AUTO 20008KT 9SM CLR 01/M03 A3034 RMK SLP277 =
2018-02-19 00:00 METAR CYTZ 190000Z AUTO 19014G19KT 9SM CLR 01/M03 A3035 RMK SLP284 =
2018-02-18 23:00 METAR CYTZ 182300Z AUTO 20014G19KT 9SM CLR 02/M03 A3036 RMK SLP286 =
2018-02-18 22:00 METAR CYTZ 182200Z AUTO 19011KT 9SM FEW049 02/M03 A3036 RMK SLP286 =
2018-02-18 21:00 METAR CYTZ 182100Z AUTO 19010G15KT 9SM CLR 02/M03 A3034 RMK SLP281 =
2018-02-18 20:00 METAR CYTZ 182000Z AUTO 19012G17KT 9SM CLR 03/M04 A3031 RMK SLP267 =
2018-02-18 19:00 METAR CYTZ 181900Z AUTO 20013KT 9SM BKN045 03/M04 A3030 RMK SLP266 =
2018-02-18 18:00 METAR CYTZ 181800Z AUTO 25005KT 9SM BKN045 03/M06 A3031 RMK SLP269 =
2018-02-18 17:00 METAR CYTZ 181700Z AUTO 26010G16KT 9SM OVC045 03/M06 A3033 RMK SLP274 =
2018-02-18 16:00 METAR CYTZ 181600Z AUTO 25012G18KT 9SM BKN040 02/M05 A3032 RMK SLP272 =
2018-02-18 15:00 METAR CYTZ 181500Z AUTO 24011KT 9SM FEW029 OVC048 02/M03 A3030 RMK SLP264 =
2018-02-18 14:00 METAR CYTZ 181400Z AUTO 24013KT 9SM OVC050 01/M03 A3028 RMK SLP258 =
2018-02-18 13:00 METAR CYTZ 181300Z AUTO 24010KT 9SM OVC038 01/M04 A3025 RMK SLP248 =
2018-02-18 12:00 METAR CYTZ 181200Z AUTO 26007KT 9SM OVC034 00/M04 A3020 RMK SLP232 =
2018-02-18 11:00 METAR CYTZ 181100Z AUTO 23013KT 9SM OVC028 M00/M03 A3017 RMK PRESRR SLP221 =

Support USWX by starting your Amazon purchase here.